Latest Coastal Weather Observations for Shark Bay Airport

IDW60701

Issued at 8:35 pm WST Wednesday 20 August 2014 (issued every 10 minutes, with the page automatically refreshed every 10 minutes)

About coastal observations | Map of coastal stations | Coastal observations for WA | Marine services | Other Formats
Station Details ID: 006105 Name: SHARK BAY AIRPORT Lat: -25.89 Lon: 113.58 Height: 33.8 m
Data from the previous 72 hours. | See also: Recent months for locations in Western Australia
Date/Time
WST
Temp

°C
Wind Pressure Rain
since 9am
mm
Weather Cloud Vis
km
Sea
Height
m
Swell
Dir
 
Speed
knots
Gust
knots
hPa Trend Height
m
Period
s
Dir
20/08:30pm 16.2 NW 5 6 1017.0 - - - - - - - - -
20/08:00pm 16.8 NNW 5 6 1016.7 - - - - - - - - -
20/07:30pm 17.2 WNW 6 7 1016.5 - - - - - - - - -
20/07:00pm 17.9 NW 5 7 1016.3 - - - - - - - - -
20/06:30pm 18.5 W 7 9 1016.1 - - - - - - - - -
20/06:00pm 19.7 W 4 6 1015.8 - - - - - - - - -
20/05:30pm 21.2 W 6 8 1015.8 - - - - - - - - -
20/05:00pm 21.9 WNW 7 9 1015.9 - 0.0 - - - - - - -
20/04:30pm 22.5 WNW 7 11 1015.8 - 0.0 - - - - - - -
20/04:00pm 22.7 W 8 11 1015.8 - 0.0 - - - - - - -
20/03:30pm 23.4 W 9 13 1015.8 - 0.0 - - - - - - -
20/03:00pm 23.5 W 10 14 1015.8 - 0.0 - - - - - - -
20/02:30pm 23.3 W 11 13 1016.0 - 0.0 - - - - - - -
20/02:00pm 23.1 W 6 9 1016.1 - 0.0 - - - - - - -
20/01:30pm 22.8 WNW 8 11 1016.5 - 0.0 - - - - - - -
20/01:00pm 21.0 W 9 12 1017.0 - 0.0 - - - - - - -
20/12:30pm 21.3 W 9 13 1017.4 - 0.0 - - - - - - -
20/12:00pm 20.7 W 10 14 1017.7 - 0.0 - - - - - - -
20/11:30am 20.1 W 6 11 1018.1 - 0.0 - - - - - - -
20/11:00am 20.5 NNW 5 7 1018.3 - 0.0 - - - - - - -
20/10:30am 20.2 N 5 8 1018.7 - 0.0 - - - - - - -
20/10:00am 19.1 NNW 4 8 1018.8 - 0.0 - - - - - - -
20/09:30am 19.8 ENE 7 10 1018.6 - 0.0 - - - - - - -
20/09:00am 19.1 NNE 7 9 1018.7 - 0.0 - - - - - - -
20/08:30am 16.5 NE 5 6 1018.6 - 0.0 - - - - - - -
20/08:00am 14.7 NNE 5 5 1018.3 - 0.0 - - - - - - -
20/07:30am 12.0 NNE 5 5 1018.2 - 0.0 - - - - - - -
20/07:00am 10.9 NE 5 6 1018.0 - 0.0 - - - - - - -
20/06:30am 8.7 NE 6 7 1017.4 - 0.0 - - - - - - -
20/06:00am 9.7 ENE 2 5 1017.5 - 0.0 - - - - - - -
20/05:30am 10.2 CALM 0 0 1017.6 - 0.0 - - - - - - -
20/05:00am 9.7 E 4 5 1017.3 - 0.0 - - - - - - -
20/04:30am 8.5 E 5 6 1017.0 - 0.0 - - - - - - -
20/04:00am 10.1 ESE 4 4 1017.4 - 0.0 - - - - - - -
20/03:30am 11.9 SSE 4 4 1017.7 - 0.0 - - - - - - -
20/03:00am 12.3 S 4 5 1018.1 - 0.0 - - - - - - -
20/02:30am 12.3 S 6 7 1018.2 - 0.0 - - - - - - -
20/02:00am 11.5 SSE 5 6 1018.3 - 0.0 - - - - - - -
20/01:30am 11.1 SSE 4 5 1018.7 - 0.0 - - - - - - -
20/01:00am 11.2 SSE 3 4 1018.9 - 0.0 - - - - - - -
20/12:30am 11.8 SSE 4 5 1019.1 - 0.0 - - - - - - -
20/12:00am 12.6 S 4 4 1019.2 - 0.0 - - - - - - -
 
Date/Time
WST
Temp

°C
Wind Pressure Rain
since 9am
mm
Weather Cloud Vis
km
Sea
Height
m
Swell
Dir
 
Speed
knots
Gust
knots
hPa Trend Height
m
Period
s
Dir
19/11:30pm 13.0 SSE 3 6 1019.0 - 0.0 - - - - - - -
19/11:00pm 14.3 S 7 8 1019.1 - 0.0 - - - - - - -
19/10:30pm 14.5 S 7 9 1019.3 - 0.0 - - - - - - -
19/10:00pm 15.0 SSW 7 8 1019.5 - 0.0 - - - - - - -
19/09:30pm 14.7 SW 6 7 1019.6 - 0.0 - - - - - - -
19/09:00pm 14.4 SW 5 6 1019.9 - 0.0 - - - - - - -
19/08:30pm 14.9 SW 5 6 1019.7 - 0.0 - - - - - - -
19/08:00pm 15.5 SW 5 6 1019.4 - 0.0 - - - - - - -
19/07:30pm 16.0 WSW 5 7 1019.2 - 0.0 - - - - - - -
19/07:00pm 16.8 SW 5 6 1018.8 - 0.0 - - - - - - -
19/06:30pm 17.9 SW 6 7 1018.6 - 0.0 - - - - - - -
19/06:00pm 19.5 SW 7 9 1018.5 - 0.0 - - - - - - -
19/05:30pm 20.6 WSW 8 12 1018.5 - 0.0 - - - - - - -
19/05:00pm 21.5 WSW 9 13 1018.3 - 0.0 - - - - - - -
19/04:30pm 22.5 WSW 8 12 1018.2 - 0.0 - - - - - - -
19/04:00pm 22.7 WSW 10 13 1018.2 - 0.0 - - - - - - -
19/03:30pm 22.6 SW 9 14 1018.3 - 0.0 - - - - - - -
19/03:00pm 22.8 SW 8 11 1018.5 - 0.0 - - - - - - -
19/02:30pm 23.0 WSW 9 15 1018.5 - 0.0 - - - - - - -
19/02:00pm 23.0 SW 10 15 1018.7 - 0.0 - - - - - - -
19/01:30pm 22.9 SW 9 13 1019.1 - 0.0 - - - - - - -
19/01:00pm 23.2 SW 10 15 1019.6 - 0.0 - - - - - - -
19/12:30pm 22.3 SW 9 14 1020.1 - 0.0 - - - - - - -
19/12:00pm 22.6 SW 9 13 1020.5 - 0.0 - - - - - - -
19/11:30am 21.7 SW 8 12 1020.8 - 0.0 - - - - - - -
19/11:00am 21.9 SW 8 11 1021.1 - 0.0 - - - - - - -
19/10:30am 21.0 SW 7 11 1021.5 - 0.0 - - - - - - -
19/10:00am 20.6 SSW 7 9 1021.6 - 0.0 - - - - - - -
19/09:30am 20.6 S 6 9 1021.6 - 0.0 - - - - - - -
19/09:00am 19.6 SE 5 7 1021.5 - 0.2 - - - - - - -
19/08:30am 18.2 ESE 3 5 1021.3 - 0.2 - - - - - - -
19/08:00am 15.8 E 3 4 1021.2 - 0.2 - - - - - - -
19/07:30am 13.1 E 4 4 1020.8 - 0.2 - - - - - - -
19/07:00am 10.9 ENE 4 6 1020.7 - 0.2 - - - - - - -
19/06:30am 11.7 SSE 3 5 1020.5 - 0.2 - - - - - - -
19/06:00am 12.7 SSE 3 5 1020.2 - 0.2 - - - - - - -
19/05:30am 13.5 S 3 4 1020.0 - 0.2 - - - - - - -
19/05:00am 13.3 WSW 5 6 1019.8 - 0.2 - - - - - - -
19/04:30am 12.6 SSE 2 3 1019.7 - 0.2 - - - - - - -
19/04:00am 11.4 SSE 5 5 1019.8 - 0.2 - - - - - - -
19/03:30am 11.0 SSE 5 6 1019.8 - 0.2 - - - - - - -
19/03:00am 13.0 S 7 7 1020.0 - 0.2 - - - - - - -
19/02:30am 11.0 SSE 4 5 1020.1 - 0.2 - - - - - - -
19/02:00am 11.4 S 3 4 1020.3 - 0.2 - - - - - - -
19/01:30am 12.1 S 2 3 1020.6 - 0.2 - - - - - - -
19/01:00am 12.6 SSE 3 4 1020.8 - 0.2 - - - - - - -
19/12:30am 12.5 SSE 3 4 1020.9 - 0.2 - - - - - - -
19/12:00am 13.4 S 5 6 1021.2 - 0.2 - - - - - - -
 
Date/Time
WST
Temp

°C
Wind Pressure Rain
since 9am
mm
Weather Cloud Vis
km
Sea
Height
m
Swell
Dir
 
Speed
knots
Gust
knots
hPa Trend Height
m
Period
s
Dir
18/11:30pm 13.6 S 5 6 1021.3 - 0.2 - - - - - - -
18/11:00pm 14.2 S 6 6 1021.4 - 0.2 - - - - - - -
18/10:30pm 14.7 S 6 7 1021.5 - 0.2 - - - - - - -
18/10:00pm 14.7 S 7 7 1021.4 - 0.2 - - - - - - -
18/09:30pm 14.6 S 5 6 1021.4 - 0.2 - - - - - - -
18/09:00pm 16.2 S 8 9 1021.2 - 0.2 - - - - - - -
18/08:30pm 16.0 S 7 9 1021.1 - 0.2 - - - - - - -
18/08:00pm 16.6 SSW 7 9 1021.0 - 0.2 - - - - - - -
18/07:30pm 16.7 SSW 7 8 1020.6 - 0.2 - - - - - - -
18/07:00pm 17.2 SSW 7 9 1020.4 - 0.2 - - - - - - -
18/06:30pm 17.7 SSW 7 8 1020.1 - 0.2 - - - - - - -
18/06:00pm 18.8 SW 7 10 1019.9 - 0.2 - - - - - - -
18/05:30pm 19.9 SSW 8 13 1019.6 - 0.2 - - - - - - -
18/05:00pm 20.5 WSW 8 12 1019.4 - 0.2 - - - - - - -
18/04:30pm 21.3 WSW 8 11 1019.4 - 0.2 - - - - - - -
18/04:00pm 21.5 WSW 9 13 1019.3 - 0.2 - - - - - - -
18/03:30pm 21.7 WSW 10 14 1019.2 - 0.2 - - - - - - -
18/03:00pm 22.5 WSW 11 14 1019.2 - 0.2 - - - - - - -
18/02:30pm 22.1 WSW 9 13 1019.3 - 0.2 - - - - - - -
18/02:00pm 22.6 WSW 10 16 1019.5 - 0.2 - - - - - - -
18/01:30pm 22.3 SW 10 15 1019.7 - 0.2 - - - - - - -
18/01:00pm 22.4 SW 8 14 1020.1 - 0.2 - - - - - - -
18/12:30pm 21.9 SW 9 13 1020.6 - 0.2 - - - - - - -
18/12:00pm 21.7 SW 9 14 1020.7 - 0.2 Recent precip. - - - - - -
18/11:30am 22.4 SSW 10 14 1020.9 - 0.0 - - - - - - -
18/11:00am 21.1 SSW 10 16 1021.3 - 0.0 - - - - - - -
18/10:30am 19.6 SW 7 11 1021.8 - 0.0 - - - - - - -
18/10:00am 21.6 SSW 8 11 1021.7 - 0.0 - - - - - - -
18/09:30am 19.8 SSW 7 9 1021.6 - 0.0 - - - - - - -
18/09:00am 18.9 S 6 7 1021.5 - 4.2 - - - - - - -
18/08:30am 18.5 S 5 6 1021.3 - 4.2 - - - - - - -
18/08:00am 18.1 S 5 6 1020.9 - 4.2 - - - - - - -
18/07:30am 17.8 S 6 7 1020.5 - 4.2 - - - - - - -
18/07:00am 17.7 S 5 6 1020.3 - 4.2 - - - - - - -
18/06:30am 17.6 SSE 4 5 1019.9 - 4.2 - - - - - - -
18/06:00am 16.9 CALM 0 0 1019.3 - 4.2 - - - - - - -
18/05:30am 16.8 N 3 4 1019.0 - 4.2 - - - - - - -
18/05:00am 16.9 W 6 8 1018.7 - 4.2 - - - - - - -
18/04:30am 16.9 NNW 6 8 1018.6 - 4.2 - - - - - - -
18/04:00am 17.1 WNW 7 9 1018.6 - 4.0 - - - - - - -
18/03:30am 17.1 W 8 13 1018.8 - 3.0 - - - - - - -
18/03:00am 17.7 W 7 10 1018.9 - 1.0 Recent precip. - - - - - -
18/02:30am 16.6 WNW 7 8 1019.0 - 0.0 - - - - - - -
18/02:00am 16.3 WNW 8 9 1019.1 - 0.0 - - - - - - -
18/01:30am 16.0 WNW 6 8 1019.2 - 0.0 - - - - - - -
18/01:00am 16.2 WNW 6 7 1019.3 - 0.0 - - - - - - -
18/12:30am 16.0 NW 6 7 1019.4 - 0.0 - - - - - - -
18/12:00am 16.5 NW 7 9 1019.4 - 0.0 - - - - - - -
 
Date/Time
WST
Temp

°C
Wind Pressure Rain
since 9am
mm
Weather Cloud Vis
km
Sea
Height
m
Swell
Dir
 
Speed
knots
Gust
knots
hPa Trend Height
m
Period
s
Dir
17/11:30pm 15.7 NW 6 7 1019.5 - 0.0 - - - - - - -
17/11:00pm 16.0 NNW 6 7 1019.6 - 0.0 - - - - - - -
17/10:30pm 15.8 NW 6 7 1019.9 - 0.0 - - - - - - -
17/10:00pm 16.3 NW 7 8 1020.0 - 0.0 - - - - - - -
17/09:30pm 16.4 NNW 5 6 1020.0 - 0.0 - - - - - - -
17/09:00pm 17.5 NNW 5 6 1020.0 - 0.0 - - - - - - -

Other Formats:

Comma delimited format used in spreadsheet applications
http://www.bom.gov.au/fwo/IDW60701/IDW60701.95402.axf

JavaScript Object Notation format (JSON) in row-major order
http://www.bom.gov.au/fwo/IDW60701/IDW60701.95402.json